• Join FlightAware (Why Join?)
  • Login
  • US Flag 
11:56PM EST


 

Airport Tracker/Info


-or-


 

Live Flight TrackerFlight Track Log ✈ JZA8752 ✈ 15-Jun-2013 ✈ CYVO - CYUL

Flight Track Log - Related Links

Times and Time Zones

All times are in EDT time to prevent confusion due to time zone crossing. See the JZA8752 flight status page for this flight to view local times or setup timezone preferences in your user account.

Time Position Orientation Groundspeed Altitude Reporting Facility
EDT Latitude Longitude Course Direction KTS MPH feet Rate Location/Type
10:49AM 47.9265 -77.4177 133° Southeast  Level FlightAware Approximate
10:50AM 47.8762 -77.3435 135° Southeast  Level FlightAware Approximate
10:51AM 47.8259 -77.2694 135° Southeast  Level FlightAware Approximate
10:52AM 47.7755 -77.1954 135° Southeast  Level FlightAware Approximate
10:53AM 47.7251 -77.1216 135° Southeast  Level FlightAware Approximate
10:53AM 47.7167 -77.1167 136° Southeast 240 276 15,500  Level Montreal Center
10:54AM 47.6746 -77.0480 135° Southeast  Level FlightAware Approximate
10:55AM 47.6241 -76.9744 136° Southeast  Level FlightAware Approximate
10:55AM 47.6167 -76.9667 135° Southeast 260 299 17,700  Level Montreal Center
10:56AM 47.5735 -76.9011 136° Southeast  Level FlightAware Approximate
10:56AM 47.5667 -76.8833 132° Southeast 260 299 18,900  Level Montreal Center
10:57AM 47.5229 -76.8278 136° Southeast  Level FlightAware Approximate
10:57AM 47.5167 -76.8167 138° Southeast 270 311 19,800  Level Montreal Center
10:58AM 47.4722 -76.7547 136° Southeast  Level FlightAware Approximate
10:58AM 47.4667 -76.7333 132° Southeast 270 311 20,800  Level Montreal Center
10:59AM 47.4215 -76.6818 136° Southeast  Level FlightAware Approximate
10:59AM 47.4167 -76.6333 126° Southeast 270 311 21,800  Level Montreal Center
11:00AM 47.3667 -76.5667 138° Southeast 280 322 22,600 780 Climbing Montreal Center
11:01AM 47.3000 -76.4667 134° Southeast 280 322 23,400 780 Climbing Montreal Center
11:02AM 47.2500 -76.3833 131° Southeast 280 322 24,200 720 Climbing Montreal Center
11:03AM 47.2000 -76.3167 138° Southeast 280 322 24,900 360 Climbing Montreal Center
11:04AM 47.1333 -76.2167 134° Southeast 300 345 25,000  Climbing Montreal Center
11:05AM 47.0667 -76.1167 134° Southeast 310 357 25,000  Level Montreal Center
11:06AM 47.0167 -76.0333 131° Southeast 330 380 25,000  Level Montreal Center
11:07AM 46.9500 -75.9167 130° Southeast 340 391 25,000  Level Montreal Center
11:08AM 46.8833 -75.8167 134° Southeast 340 391 25,000  Level Montreal Center
11:09AM 46.8167 -75.7167 134° Southeast 340 391 25,000  Level Montreal Center
11:10AM 46.7500 -75.6167 134° Southeast 340 391 25,000 -60 Level Montreal Center
11:11AM 46.6833 -75.5333 139° Southeast 340 391 24,900 -600 Descending Montreal Center
11:12AM 46.6333 -75.4000 119° Southeast 350 403 23,800 -1,200 Descending Montreal Center
11:13AM 46.5500 -75.3167 145° Southeast 370 426 22,500 -1,200 Descending Montreal Center
11:14AM 46.4833 -75.1833 126° Southeast 370 426 21,400 -1,200 Descending Montreal Center
11:15AM 46.4167 -75.0667 130° Southeast 370 426 20,100 -1,260 Descending Montreal Center
11:16AM 46.3500 -74.9667 134° Southeast 360 414 18,900 -1,200 Descending Montreal Center
11:17AM 46.2667 -74.8833 145° Southeast 350 403 17,700 -1,200 Descending Montreal Center
11:18AM 46.2000 -74.7500 126° Southeast 350 403 16,500 -1,200 Descending Montreal Center
11:19AM 46.1500 -74.6667 131° Southeast 340 391 15,400 -1,140 Descending Montreal Center
11:20AM 46.0833 -74.5667 134° Southeast 330 380 14,300 -1,020 Descending Montreal Center
11:21AM 46.0167 -74.4667 134° Southeast 330 380 13,400 -900 Descending Montreal Center
11:22AM 45.9500 -74.4000 145° Southeast 320 368 12,500 -1,020 Descending Montreal Center
11:23AM 45.8833 -74.3000 134° Southeast 310 357 11,400 -1,200 Descending Montreal Center
11:24AM 45.8167 -74.2333 145° Southeast 310 357 10,200 -1,200 Descending Montreal Center
11:25AM 45.7667 -74.1667 137° Southeast 240 276 9,000 -1,260 Descending Montreal Center
11:26AM 45.7333 -74.1000 126° Southeast 240 276 7,700 -1,200 Descending Montreal Center
11:27AM 45.7000 -74.0000 115° Southeast 240 276 6,600 -900 Descending Montreal Center
11:28AM 45.6500 -73.9333 137° Southeast 230 265 6,000 -660 Descending Montreal Center
11:29AM 45.6333 -73.8333 103° East 240 276 5,300 -900 Descending Montreal Center
11:30AM 45.6333 -73.7333 90° East 250 288 4,300 -1,020 Descending Montreal Center
11:31AM 45.6333 -73.6500 90° East 240 276 3,300 -900 Descending Montreal Center
11:32AM 45.6000 -73.6000 134° Southeast 200 230 2,600 -600 Descending Montreal Center
11:33AM 45.5500 -73.6167 193° South 160 184 2,200 -420 Descending Montreal Center